sensor_id;sensor_type;location;lat;lon;timestamp;pressure;altitude;pressure_sealevel;temperature;humidity
70217;BME280;65567;55.684;37.570;2023-02-02T00:01:19;98156.81;;;3.04;58.60
70217;BME280;65567;55.684;37.570;2023-02-02T00:03:47;98155.91;;;3.05;58.25
70217;BME280;65567;55.684;37.570;2023-02-02T00:06:19;98153.13;;;3.09;58.13
70217;BME280;65567;55.684;37.570;2023-02-02T00:08:45;98154.00;;;3.10;58.18
70217;BME280;65567;55.684;37.570;2023-02-02T00:11:12;98153.50;;;3.22;57.69
70217;BME280;65567;55.684;37.570;2023-02-02T00:13:39;98159.75;;;2.94;58.15
70217;BME280;65567;55.684;37.570;2023-02-02T00:19:02;98162.19;;;2.97;58.12
70217;BME280;65567;55.684;37.570;2023-02-02T00:21:28;98156.25;;;2.95;57.99
70217;BME280;65567;55.684;37.570;2023-02-02T00:23:54;98157.16;;;2.94;57.81
70217;BME280;65567;55.684;37.570;2023-02-02T00:26:20;98147.81;;;2.90;57.70
70217;BME280;65567;55.684;37.570;2023-02-02T00:28:46;98150.75;;;3.05;57.28
70217;BME280;65567;55.684;37.570;2023-02-02T00:31:13;98154.56;;;2.94;57.52
70217;BME280;65567;55.684;37.570;2023-02-02T00:33:39;98153.22;;;2.84;57.72
70217;BME280;65567;55.684;37.570;2023-02-02T00:36:09;98148.59;;;2.92;57.41
70217;BME280;65567;55.684;37.570;2023-02-02T00:38:35;98146.56;;;2.77;57.75
70217;BME280;65567;55.684;37.570;2023-02-02T00:41:03;98151.72;;;2.78;57.65
70217;BME280;65567;55.684;37.570;2023-02-02T00:43:29;98145.25;;;2.90;57.09
70217;BME280;65567;55.684;37.570;2023-02-02T00:45:55;98148.44;;;2.97;56.64
70217;BME280;65567;55.684;37.570;2023-02-02T00:48:21;98151.66;;;2.80;57.11
70217;BME280;65567;55.684;37.570;2023-02-02T00:50:48;98154.31;;;2.77;57.01
70217;BME280;65567;55.684;37.570;2023-02-02T00:53:14;98150.09;;;2.51;57.43
70217;BME280;65567;55.684;37.570;2023-02-02T00:55:41;98152.31;;;2.61;56.89
70217;BME280;65567;55.684;37.570;2023-02-02T00:58:07;98148.59;;;2.45;57.05
70217;BME280;65567;55.684;37.570;2023-02-02T01:00:33;98145.28;;;2.16;57.41
70217;BME280;65567;55.684;37.570;2023-02-02T01:02:59;98146.94;;;2.17;56.61
70217;BME280;65567;55.684;37.570;2023-02-02T01:05:34;98146.94;;;2.17;56.77
70217;BME280;65567;55.684;37.570;2023-02-02T01:08:01;98134.63;;;2.25;56.39
70217;BME280;65567;55.684;37.570;2023-02-02T01:10:27;98152.63;;;2.52;55.84
70217;BME280;65567;55.684;37.570;2023-02-02T01:12:53;98145.13;;;2.46;56.11
70217;BME280;65567;55.684;37.570;2023-02-02T01:15:19;98145.25;;;2.41;56.15
70217;BME280;65567;55.684;37.570;2023-02-02T01:17:45;98152.28;;;2.38;56.12
70217;BME280;65567;55.684;37.570;2023-02-02T01:20:17;98148.41;;;2.50;55.86
70217;BME280;65567;55.684;37.570;2023-02-02T01:22:43;98142.06;;;2.58;55.63
70217;BME280;65567;55.684;37.570;2023-02-02T01:25:09;98138.81;;;2.53;55.77
70217;BME280;65567;55.684;37.570;2023-02-02T01:27:35;98142.06;;;2.58;55.99
70217;BME280;65567;55.684;37.570;2023-02-02T01:30:01;98138.72;;;2.56;55.72
70217;BME280;65567;55.684;37.570;2023-02-02T01:32:27;98135.63;;;2.70;55.71
70217;BME280;65567;55.684;37.570;2023-02-02T01:34:53;98139.41;;;2.61;55.99
70217;BME280;65567;55.684;37.570;2023-02-02T01:37:19;98135.47;;;2.51;56.21
70217;BME280;65567;55.684;37.570;2023-02-02T01:39:47;98136.97;;;2.57;55.78
70217;BME280;65567;55.684;37.570;2023-02-02T01:42:17;98130.91;;;2.58;56.02
70217;BME280;65567;55.684;37.570;2023-02-02T01:47:32;98137.91;;;2.54;56.07
70217;BME280;65567;55.684;37.570;2023-02-02T01:49:59;98130.28;;;2.51;56.14
70217;BME280;65567;55.684;37.570;2023-02-02T01:52:27;98129.34;;;2.28;56.85
70217;BME280;65567;55.684;37.570;2023-02-02T01:54:57;98136.00;;;2.36;56.82
70217;BME280;65567;55.684;37.570;2023-02-02T01:57:30;98141.38;;;2.29;57.03
70217;BME280;65567;55.684;37.570;2023-02-02T01:59:59;98139.09;;;2.45;56.49
70217;BME280;65567;55.684;37.570;2023-02-02T02:02:28;98133.75;;;2.26;56.89
70217;BME280;65567;55.684;37.570;2023-02-02T02:04:55;98136.81;;;2.36;56.58
70217;BME280;65567;55.684;37.570;2023-02-02T02:07:22;98130.91;;;2.33;56.75
70217;BME280;65567;55.684;37.570;2023-02-02T02:09:48;98142.81;;;2.37;56.93
70217;BME280;65567;55.684;37.570;2023-02-02T02:12:15;98137.13;;;2.52;56.20
70217;BME280;65567;55.684;37.570;2023-02-02T02:14:44;98136.13;;;2.56;56.18
70217;BME280;65567;55.684;37.570;2023-02-02T02:27:13;98139.00;;;2.48;56.44
70217;BME280;65567;55.684;37.570;2023-02-02T02:30:16;98140.94;;;2.42;56.64
70217;BME280;65567;55.684;37.570;2023-02-02T02:32:51;98142.59;;;2.19;57.25
70217;BME280;65567;55.684;37.570;2023-02-02T02:40:36;98132.50;;;2.37;56.72
70217;BME280;65567;55.684;37.570;2023-02-02T02:43:12;98146.53;;;2.29;56.78
70217;BME280;65567;55.684;37.570;2023-02-02T02:45:40;98141.38;;;2.29;56.59
70217;BME280;65567;55.684;37.570;2023-02-02T02:48:10;98137.78;;;2.34;56.46
70217;BME280;65567;55.684;37.570;2023-02-02T02:50:37;98143.81;;;2.34;56.43
70217;BME280;65567;55.684;37.570;2023-02-02T02:53:05;98146.06;;;2.43;55.95
70217;BME280;65567;55.684;37.570;2023-02-02T03:01:20;98142.53;;;2.46;55.48
70217;BME280;65567;55.684;37.570;2023-02-02T03:06:53;98142.53;;;2.46;55.22
70217;BME280;65567;55.684;37.570;2023-02-02T03:09:23;98157.00;;;2.26;55.59
70217;BME280;65567;55.684;37.570;2023-02-02T03:11:50;98153.66;;;2.23;55.39
70217;BME280;65567;55.684;37.570;2023-02-02T03:14:16;98137.97;;;2.27;55.41
70217;BME280;65567;55.684;37.570;2023-02-02T03:16:42;98140.03;;;2.43;54.78
70217;BME280;65567;55.684;37.570;2023-02-02T03:19:08;98148.22;;;2.30;55.10
70217;BME280;65567;55.684;37.570;2023-02-02T03:21:34;98149.25;;;2.26;55.21
70217;BME280;65567;55.684;37.570;2023-02-02T03:24:01;98144.63;;;2.35;55.00
70217;BME280;65567;55.684;37.570;2023-02-02T03:26:27;98153.34;;;2.32;55.29
70217;BME280;65567;55.684;37.570;2023-02-02T03:28:55;98154.63;;;2.20;55.22
70217;BME280;65567;55.684;37.570;2023-02-02T03:31:22;98160.09;;;2.11;55.86
70217;BME280;65567;55.684;37.570;2023-02-02T03:33:48;98165.25;;;2.11;55.58
70217;BME280;65567;55.684;37.570;2023-02-02T03:36:14;98164.34;;;2.12;55.51
70217;BME280;65567;55.684;37.570;2023-02-02T03:38:40;98163.88;;;2.01;55.95
70217;BME280;65567;55.684;37.570;2023-02-02T03:41:06;98158.03;;;1.95;55.96
70217;BME280;65567;55.684;37.570;2023-02-02T03:43:32;98168.72;;;2.10;55.61
70217;BME280;65567;55.684;37.570;2023-02-02T03:46:01;98160.56;;;1.97;55.66
70217;BME280;65567;55.684;37.570;2023-02-02T03:48:29;98166.22;;;2.07;55.41
70217;BME280;65567;55.684;37.570;2023-02-02T03:50:55;98158.47;;;2.07;55.33
70217;BME280;65567;55.684;37.570;2023-02-02T03:53:22;98171.72;;;1.97;55.73
70217;BME280;65567;55.684;37.570;2023-02-02T03:55:48;98157.16;;;1.95;55.72
70217;BME280;65567;55.684;37.570;2023-02-02T03:58:14;98161.38;;;1.97;55.57
70217;BME280;65567;55.684;37.570;2023-02-02T04:00:42;98163.41;;;2.14;55.39
70217;BME280;65567;55.684;37.570;2023-02-02T04:03:08;98162.72;;;2.09;55.31
70217;BME280;65567;55.684;37.570;2023-02-02T04:05:34;98159.56;;;2.26;55.03
70217;BME280;65567;55.684;37.570;2023-02-02T04:08:00;98159.66;;;1.98;55.30
70217;BME280;65567;55.684;37.570;2023-02-02T04:10:26;98161.50;;;1.94;55.41
70217;BME280;65567;55.684;37.570;2023-02-02T04:12:52;98160.19;;;2.08;55.18
70217;BME280;65567;55.684;37.570;2023-02-02T04:15:19;98162.75;;;2.08;55.14
70217;BME280;65567;55.684;37.570;2023-02-02T04:17:45;98163.41;;;2.14;54.93
70217;BME280;65567;55.684;37.570;2023-02-02T04:20:11;98167.16;;;2.06;55.19
70217;BME280;65567;55.684;37.570;2023-02-02T04:22:37;98168.81;;;2.07;55.46
70217;BME280;65567;55.684;37.570;2023-02-02T04:25:03;98166.66;;;2.20;54.96
70217;BME280;65567;55.684;37.570;2023-02-02T04:27:29;98162.09;;;2.28;54.80
70217;BME280;65567;55.684;37.570;2023-02-02T04:29:58;98163.81;;;2.27;54.72
70217;BME280;65567;55.684;37.570;2023-02-02T04:32:24;98171.63;;;2.01;55.65
70217;BME280;65567;55.684;37.570;2023-02-02T04:34:50;98177.31;;;2.10;55.65
70217;BME280;65567;55.684;37.570;2023-02-02T04:37:16;98164.88;;;2.22;55.20
70217;BME280;65567;55.684;37.570;2023-02-02T04:39:42;98179.75;;;2.15;55.68
70217;BME280;65567;55.684;37.570;2023-02-02T04:42:08;98182.78;;;2.01;55.88
70217;BME280;65567;55.684;37.570;2023-02-02T04:44:34;98180.66;;;1.87;56.25
70217;BME280;65567;55.684;37.570;2023-02-02T04:47:00;98172.44;;;1.76;56.81
70217;BME280;65567;55.684;37.570;2023-02-02T04:49:26;98181.00;;;1.76;56.97
70217;BME280;65567;55.684;37.570;2023-02-02T04:51:52;98182.22;;;1.93;56.55
70217;BME280;65567;55.684;37.570;2023-02-02T04:54:18;98175.22;;;1.96;56.66
70217;BME280;65567;55.684;37.570;2023-02-02T04:56:44;98184.06;;;2.14;55.96
70217;BME280;65567;55.684;37.570;2023-02-02T04:59:10;98179.81;;;2.13;56.25
70217;BME280;65567;55.684;37.570;2023-02-02T05:01:36;98184.38;;;2.05;56.51
70217;BME280;65567;55.684;37.570;2023-02-02T05:04:02;98183.53;;;2.05;56.56
70217;BME280;65567;55.684;37.570;2023-02-02T05:06:28;98183.59;;;2.03;56.57
70217;BME280;65567;55.684;37.570;2023-02-02T05:08:54;98187.00;;;2.04;57.00
70217;BME280;65567;55.684;37.570;2023-02-02T05:11:22;98195.75;;;2.00;57.13
70217;BME280;65567;55.684;37.570;2023-02-02T05:13:51;98191.53;;;1.97;57.40
70217;BME280;65567;55.684;37.570;2023-02-02T05:16:18;98188.00;;;2.00;57.08
70217;BME280;65567;55.684;37.570;2023-02-02T05:18:55;98200.78;;;2.04;57.33
70217;BME280;65567;55.684;37.570;2023-02-02T05:21:21;98190.72;;;1.96;57.59
70217;BME280;65567;55.684;37.570;2023-02-02T05:23:48;98198.84;;;2.11;57.33
70217;BME280;65567;55.684;37.570;2023-02-02T05:26:19;98194.88;;;2.01;57.41
70217;BME280;65567;55.684;37.570;2023-02-02T05:28:47;98201.03;;;1.96;57.77
70217;BME280;65567;55.684;37.570;2023-02-02T05:31:13;98194.06;;;1.98;57.77
70217;BME280;65567;55.684;37.570;2023-02-02T05:33:39;98203.91;;;2.14;57.38
70217;BME280;65567;55.684;37.570;2023-02-02T05:36:06;98204.78;;;2.13;57.35
70217;BME280;65567;55.684;37.570;2023-02-02T05:38:32;98197.84;;;1.88;57.81
70217;BME280;65567;55.684;37.570;2023-02-02T05:40:58;98193.78;;;1.81;58.13
70217;BME280;65567;55.684;37.570;2023-02-02T05:43:26;98194.47;;;1.86;58.22
70217;BME280;65567;55.684;37.570;2023-02-02T05:45:52;98194.81;;;2.02;57.65
70217;BME280;65567;55.684;37.570;2023-02-02T05:48:18;98193.69;;;2.09;57.09
70217;BME280;65567;55.684;37.570;2023-02-02T05:50:47;98194.47;;;1.86;57.84
70217;BME280;65567;55.684;37.570;2023-02-02T05:53:20;98190.97;;;1.89;57.85
70217;BME280;65567;55.684;37.570;2023-02-02T05:55:46;98193.19;;;2.00;57.84
70217;BME280;65567;55.684;37.570;2023-02-02T05:58:12;98204.91;;;2.10;57.08
70217;BME280;65567;55.684;37.570;2023-02-02T06:00:38;98213.78;;;2.01;57.51
70217;BME280;65567;55.684;37.570;2023-02-02T06:03:04;98209.47;;;2.02;57.63
70217;BME280;65567;55.684;37.570;2023-02-02T06:05:36;98216.69;;;2.17;57.22
70217;BME280;65567;55.684;37.570;2023-02-02T06:08:02;98213.09;;;2.23;57.19
70217;BME280;65567;55.684;37.570;2023-02-02T06:10:28;98218.78;;;2.33;56.57
70217;BME280;65567;55.684;37.570;2023-02-02T06:12:57;98215.31;;;2.34;56.41
70217;BME280;65567;55.684;37.570;2023-02-02T06:15:23;98221.34;;;2.34;56.57
70217;BME280;65567;55.684;37.570;2023-02-02T06:17:49;98222.56;;;2.22;56.86
70217;BME280;65567;55.684;37.570;2023-02-02T06:20:15;98216.16;;;2.34;56.74
70217;BME280;65567;55.684;37.570;2023-02-02T06:22:41;98214.97;;;2.43;56.28
70217;BME280;65567;55.684;37.570;2023-02-02T06:25:08;98226.50;;;2.59;55.95
70217;BME280;65567;55.684;37.570;2023-02-02T06:27:34;98221.34;;;2.34;56.51
70217;BME280;65567;55.684;37.570;2023-02-02T06:30:00;98230.88;;;2.32;56.75
70217;BME280;65567;55.684;37.570;2023-02-02T06:32:29;98223.16;;;2.30;56.70
70217;BME280;65567;55.684;37.570;2023-02-02T06:34:56;98223.13;;;2.32;56.41
70217;BME280;65567;55.684;37.570;2023-02-02T06:37:22;98232.03;;;2.48;56.02
70217;BME280;65567;55.684;37.570;2023-02-02T06:39:48;98230.41;;;2.46;56.27
70217;BME280;65567;55.684;37.570;2023-02-02T06:42:14;98232.38;;;2.38;56.13
70217;BME280;65567;55.684;37.570;2023-02-02T06:44:40;98232.88;;;2.49;56.02
70217;BME280;65567;55.684;37.570;2023-02-02T06:47:06;98225.38;;;2.41;56.21
70217;BME280;65567;55.684;37.570;2023-02-02T06:49:32;98224.03;;;2.56;55.71
70217;BME280;65567;55.684;37.570;2023-02-02T06:51:58;98222.22;;;2.58;55.82
70217;BME280;65567;55.684;37.570;2023-02-02T06:54:24;98245.41;;;2.60;55.50
70217;BME280;65567;55.684;37.570;2023-02-02T06:56:51;98238.41;;;2.38;55.91
70217;BME280;65567;55.684;37.570;2023-02-02T06:59:17;98233.19;;;2.40;56.22
70217;BME280;65567;55.684;37.570;2023-02-02T07:01:48;98225.25;;;2.46;55.90
70217;BME280;65567;55.684;37.570;2023-02-02T07:04:16;98245.91;;;2.71;55.10
70217;BME280;65567;55.684;37.570;2023-02-02T07:06:42;98243.59;;;2.38;56.20
70217;BME280;65567;55.684;37.570;2023-02-02T07:09:08;98232.69;;;2.28;56.47
70217;BME280;65567;55.684;37.570;2023-02-02T07:11:34;98229.97;;;2.58;55.76
70217;BME280;65567;55.684;37.570;2023-02-02T07:14:04;98260.63;;;2.69;55.38
70217;BME280;65567;55.684;37.570;2023-02-02T07:16:30;98243.34;;;2.46;56.10
70217;BME280;65567;55.684;37.570;2023-02-02T07:18:56;98236.63;;;2.66;55.75
70217;BME280;65567;55.684;37.570;2023-02-02T07:21:24;98234.63;;;2.74;55.40
70217;BME280;65567;55.684;37.570;2023-02-02T07:23:51;98249.13;;;2.78;55.25
70217;BME280;65567;55.684;37.570;2023-02-02T07:26:18;98240.84;;;2.68;55.67
70217;BME280;65567;55.684;37.570;2023-02-02T07:28:47;98242.56;;;2.68;55.23
70217;BME280;65567;55.684;37.570;2023-02-02T07:31:17;98246.97;;;2.66;55.40
70217;BME280;65567;55.684;37.570;2023-02-02T07:33:44;98255.50;;;2.68;55.71
70217;BME280;65567;55.684;37.570;2023-02-02T07:36:11;98247.97;;;2.61;55.62
70217;BME280;65567;55.684;37.570;2023-02-02T07:38:37;98244.53;;;2.61;55.72
70217;BME280;65567;55.684;37.570;2023-02-02T07:41:04;98244.75;;;2.80;55.26
70217;BME280;65567;55.684;37.570;2023-02-02T07:43:30;98262.78;;;2.81;55.18
70217;BME280;65567;55.684;37.570;2023-02-02T07:46:00;98250.66;;;2.58;55.26
70217;BME280;65567;55.684;37.570;2023-02-02T07:48:28;98247.19;;;2.59;55.44
70217;BME280;65567;55.684;37.570;2023-02-02T07:51:00;98249.59;;;2.89;54.80
70217;BME280;65567;55.684;37.570;2023-02-02T07:53:27;98249.91;;;2.80;54.81
70217;BME280;65567;55.684;37.570;2023-02-02T07:56:10;98253.94;;;2.63;55.22
70217;BME280;65567;55.684;37.570;2023-02-02T07:58:36;98254.91;;;2.85;54.49
70217;BME280;65567;55.684;37.570;2023-02-02T08:01:03;98250.34;;;2.68;54.82
70217;BME280;65567;55.684;37.570;2023-02-02T08:03:30;98245.03;;;2.20;55.84
70217;BME280;65567;55.684;37.570;2023-02-02T08:05:57;98247.13;;;2.36;55.60
70217;BME280;65567;55.684;37.570;2023-02-02T08:08:24;98269.56;;;2.34;55.90
70217;BME280;65567;55.684;37.570;2023-02-02T08:10:51;98257.84;;;2.23;55.73
70217;BME280;65567;55.684;37.570;2023-02-02T08:13:17;98249.56;;;2.13;56.08
70217;BME280;65567;55.684;37.570;2023-02-02T08:15:43;98257.53;;;2.59;54.95
70217;BME280;65567;55.684;37.570;2023-02-02T08:18:09;98246.88;;;2.43;55.14
70217;BME280;65567;55.684;37.570;2023-02-02T08:20:35;98262.63;;;2.36;55.28
70217;BME280;65567;55.684;37.570;2023-02-02T08:23:01;98251.13;;;2.44;55.13
70217;BME280;65567;55.684;37.570;2023-02-02T08:25:27;98251.59;;;2.56;54.95
70217;BME280;65567;55.684;37.570;2023-02-02T08:27:54;98247.19;;;2.59;54.55
70217;BME280;65567;55.684;37.570;2023-02-02T08:30:23;98258.97;;;2.67;54.33
70217;BME280;65567;55.684;37.570;2023-02-02T08:32:49;98271.91;;;2.67;54.30
70217;BME280;65567;55.684;37.570;2023-02-02T08:35:16;98257.63;;;2.56;54.16
70217;BME280;65567;55.684;37.570;2023-02-02T08:37:49;98263.75;;;2.79;53.65
70217;BME280;65567;55.684;37.570;2023-02-02T08:40:16;98241.91;;;2.88;53.71
70217;BME280;65567;55.684;37.570;2023-02-02T08:42:42;98255.94;;;2.80;53.65
70217;BME280;65567;55.684;37.570;2023-02-02T08:45:08;98250.94;;;2.76;53.60
70217;BME280;65567;55.684;37.570;2023-02-02T08:47:35;98250.66;;;2.84;53.43
70217;BME280;65567;55.684;37.570;2023-02-02T08:50:01;98251.63;;;3.05;52.78
70217;BME280;65567;55.684;37.570;2023-02-02T08:52:27;98250.06;;;3.24;52.21
70217;BME280;65567;55.684;37.570;2023-02-02T08:54:53;98262.53;;;3.37;52.23
70217;BME280;65567;55.684;37.570;2023-02-02T08:57:19;98255.84;;;3.31;51.98
70217;BME280;65567;55.684;37.570;2023-02-02T08:59:45;98249.31;;;3.21;52.00
70217;BME280;65567;55.684;37.570;2023-02-02T09:02:11;98252.19;;;3.13;52.06
70217;BME280;65567;55.684;37.570;2023-02-02T09:04:38;98243.41;;;3.41;51.53
70217;BME280;65567;55.684;37.570;2023-02-02T09:07:07;98232.91;;;3.68;51.64
70217;BME280;65567;55.684;37.570;2023-02-02T09:09:33;98234.47;;;3.72;51.01
70217;BME280;65567;55.684;37.570;2023-02-02T09:11:59;98236.38;;;3.89;51.29
70217;BME280;65567;55.684;37.570;2023-02-02T09:14:25;98246.03;;;4.07;50.17
70217;BME280;65567;55.684;37.570;2023-02-02T09:16:51;98241.31;;;4.17;49.92
70217;BME280;65567;55.684;37.570;2023-02-02T09:19:17;98237.75;;;4.20;49.77
70217;BME280;65567;55.684;37.570;2023-02-02T09:21:43;98245.59;;;4.18;49.57
70217;BME280;65567;55.684;37.570;2023-02-02T09:24:11;98243.91;;;4.38;49.75
70217;BME280;65567;55.684;37.570;2023-02-02T09:26:38;98242.19;;;4.38;49.31
70217;BME280;65567;55.684;37.570;2023-02-02T09:29:06;98251.00;;;4.55;48.81
70217;BME280;65567;55.684;37.570;2023-02-02T09:31:35;98251.66;;;4.60;49.11
70217;BME280;65567;55.684;37.570;2023-02-02T09:34:03;98245.03;;;4.53;48.94
70217;BME280;65567;55.684;37.570;2023-02-02T09:36:29;98244.84;;;4.57;49.06
70217;BME280;65567;55.684;37.570;2023-02-02T09:38:56;98253.72;;;4.72;48.64
70217;BME280;65567;55.684;37.570;2023-02-02T09:49:11;98243.28;;;4.53;48.66
70217;BME280;65567;55.684;37.570;2023-02-02T09:51:42;98243.91;;;4.38;49.20
70217;BME280;65567;55.684;37.570;2023-02-02T09:56:44;98241.59;;;4.52;48.31
70217;BME280;65567;55.684;37.570;2023-02-02T09:59:21;98239.31;;;4.44;48.27
70217;BME280;65567;55.684;37.570;2023-02-02T10:01:52;98230.56;;;4.47;48.30
70217;BME280;65567;55.684;37.570;2023-02-02T10:04:31;98238.03;;;4.55;48.38
70217;BME280;65567;55.684;37.570;2023-02-02T10:07:15;98229.91;;;4.42;48.42
70217;BME280;65567;55.684;37.570;2023-02-02T10:13:08;98224.56;;;4.46;48.42
70217;BME280;65567;55.684;37.570;2023-02-02T10:15:41;98217.81;;;4.42;48.13
70217;BME280;65567;55.684;37.570;2023-02-02T10:23:50;98219.75;;;4.58;48.14
70217;BME280;65567;55.684;37.570;2023-02-02T10:26:38;98223.69;;;4.67;47.87
70217;BME280;65567;55.684;37.570;2023-02-02T10:29:17;98236.16;;;4.58;47.99
70217;BME280;65567;55.684;37.570;2023-02-02T10:32:34;98226.50;;;4.62;47.77
70217;BME280;65567;55.684;37.570;2023-02-02T10:34:41;98222.38;;;4.77;47.82
70217;BME280;65567;55.684;37.570;2023-02-02T10:40:30;98220.03;;;4.91;47.70
70217;BME280;65567;55.684;37.570;2023-02-02T10:46:26;98215.63;;;4.93;47.73
70217;BME280;65567;55.684;37.570;2023-02-02T10:49:15;98214.19;;;4.86;48.06
70217;BME280;65567;55.684;37.570;2023-02-02T10:54:49;98202.72;;;4.92;47.80
70217;BME280;65567;55.684;37.570;2023-02-02T11:02:48;98194.44;;;5.41;47.10
70217;BME280;65567;55.684;37.570;2023-02-02T11:05:22;98201.03;;;5.48;47.13
70217;BME280;65567;55.684;37.570;2023-02-02T11:08:49;98209.03;;;5.43;47.04
70217;BME280;65567;55.684;37.570;2023-02-02T11:11:38;98218.13;;;5.35;46.53
70217;BME280;65567;55.684;37.570;2023-02-02T11:14:14;98205.56;;;5.25;46.53
70217;BME280;65567;55.684;37.570;2023-02-02T11:16:44;98214.44;;;5.01;46.77
70217;BME280;65567;55.684;37.570;2023-02-02T11:21:57;98229.09;;;5.02;46.74
70217;BME280;65567;55.684;37.570;2023-02-02T11:27:23;98217.16;;;4.97;46.76
70217;BME280;65567;55.684;37.570;2023-02-02T11:29:53;98219.00;;;4.95;46.82
70217;BME280;65567;55.684;37.570;2023-02-02T11:35:12;98227.97;;;4.68;47.73
70217;BME280;65567;55.684;37.570;2023-02-02T11:37:53;98229.03;;;4.63;47.38
70217;BME280;65567;55.684;37.570;2023-02-02T11:40:30;98228.38;;;4.58;47.55
70217;BME280;65567;55.684;37.570;2023-02-02T11:43:00;98234.84;;;4.48;47.80
70217;BME280;65567;55.684;37.570;2023-02-02T11:45:40;98235.75;;;4.47;47.78
70217;BME280;65567;55.684;37.570;2023-02-02T11:48:18;98229.91;;;4.42;47.89
70217;BME280;65567;55.684;37.570;2023-02-02T11:50:52;98226.41;;;4.22;48.60
70217;BME280;65567;55.684;37.570;2023-02-02T11:53:29;98234.19;;;4.22;48.56
70217;BME280;65567;55.684;37.570;2023-02-02T11:56:00;98215.91;;;4.05;48.60
70217;BME280;65567;55.684;37.570;2023-02-02T12:01:36;98221.69;;;3.89;49.17
70217;BME280;65567;55.684;37.570;2023-02-02T12:04:30;98233.31;;;3.79;50.04
70217;BME280;65567;55.684;37.570;2023-02-02T12:06:56;98240.59;;;3.91;49.50
70217;BME280;65567;55.684;37.570;2023-02-02T12:09:24;98229.91;;;4.01;49.37
70217;BME280;65567;55.684;37.570;2023-02-02T12:14:58;98236.34;;;4.11;49.00
70217;BME280;65567;55.684;37.570;2023-02-02T12:17:39;98227.97;;;4.06;49.33
70217;BME280;65567;55.684;37.570;2023-02-02T12:20:42;98224.25;;;4.11;49.09
70217;BME280;65567;55.684;37.570;2023-02-02T12:24:07;98227.09;;;4.05;48.74
70217;BME280;65567;55.684;37.570;2023-02-02T12:26:43;98232.81;;;3.91;49.15
70217;BME280;65567;55.684;37.570;2023-02-02T12:29:42;98230.38;;;3.88;49.25
70217;BME280;65567;55.684;37.570;2023-02-02T12:32:27;98230.50;;;3.85;49.06
70217;BME280;65567;55.684;37.570;2023-02-02T12:43:49;98259.22;;;3.57;50.50
70217;BME280;65567;55.684;37.570;2023-02-02T12:49:12;98245.38;;;3.58;50.31
70217;BME280;65567;55.684;37.570;2023-02-02T12:55:14;98249.00;;;3.52;50.38
70217;BME280;65567;55.684;37.570;2023-02-02T12:57:49;98252.63;;;3.48;50.61
70217;BME280;65567;55.684;37.570;2023-02-02T13:00:56;98246.56;;;3.49;50.62
70217;BME280;65567;55.684;37.570;2023-02-02T13:06:27;98258.84;;;3.20;51.11
70217;BME280;65567;55.684;37.570;2023-02-02T13:09:04;98266.88;;;3.12;51.76
70217;BME280;65567;55.684;37.570;2023-02-02T13:11:39;98254.34;;;3.25;51.41
70217;BME280;65567;55.684;37.570;2023-02-02T13:14:23;98239.38;;;3.34;51.26
70217;BME280;65567;55.684;37.570;2023-02-02T13:16:54;98258.50;;;3.29;51.45
70217;BME280;65567;55.684;37.570;2023-02-02T13:22:02;98248.59;;;3.17;52.17
70217;BME280;65567;55.684;37.570;2023-02-02T13:24:32;98245.00;;;3.21;52.24
70217;BME280;65567;55.684;37.570;2023-02-02T13:27:01;98244.50;;;3.11;52.41
70217;BME280;65567;55.684;37.570;2023-02-02T13:29:46;98245.31;;;3.12;52.54
70217;BME280;65567;55.684;37.570;2023-02-02T13:32:41;98253.22;;;3.09;52.67
70217;BME280;65567;55.684;37.570;2023-02-02T13:35:27;98248.94;;;3.08;52.67
70217;BME280;65567;55.684;37.570;2023-02-02T13:38:18;98256.13;;;3.00;52.84
70217;BME280;65567;55.684;37.570;2023-02-02T13:40:46;98245.03;;;2.96;53.00
70217;BME280;65567;55.684;37.570;2023-02-02T13:46:43;98258.50;;;3.29;52.17
70217;BME280;65567;55.684;37.570;2023-02-02T13:49:09;98260.19;;;3.30;52.00
70217;BME280;65567;55.684;37.570;2023-02-02T13:51:54;98256.81;;;3.28;52.33
70217;BME280;65567;55.684;37.570;2023-02-02T13:57:23;98264.38;;;3.09;52.74
70217;BME280;65567;55.684;37.570;2023-02-02T14:05:28;98264.94;;;2.94;53.93
70217;BME280;65567;55.684;37.570;2023-02-02T14:08:17;98253.06;;;2.88;53.96
70217;BME280;65567;55.684;37.570;2023-02-02T14:10:57;98264.22;;;2.90;53.88
70217;BME280;65567;55.684;37.570;2023-02-02T14:13:51;98272.88;;;3.13;53.32
70217;BME280;65567;55.684;37.570;2023-02-02T14:19:04;98274.66;;;2.87;54.13
70217;BME280;65567;55.684;37.570;2023-02-02T14:26:48;98284.53;;;3.01;53.82
70217;BME280;65567;55.684;37.570;2023-02-02T14:34:53;98287.25;;;2.96;53.91
70217;BME280;65567;55.684;37.570;2023-02-02T14:37:33;98283.69;;;3.01;53.84
70217;BME280;65567;55.684;37.570;2023-02-02T14:49:11;98292.22;;;3.03;53.71
70217;BME280;65567;55.684;37.570;2023-02-02T14:51:47;98297.41;;;3.03;53.79
70217;BME280;65567;55.684;37.570;2023-02-02T14:54:36;98302.91;;;2.93;54.13
70217;BME280;65567;55.684;37.570;2023-02-02T14:57:24;98304.38;;;3.01;53.92
70217;BME280;65567;55.684;37.570;2023-02-02T14:59:52;98298.25;;;3.03;53.94
70217;BME280;65567;55.684;37.570;2023-02-02T15:02:31;98320.59;;;3.06;54.06
70217;BME280;65567;55.684;37.570;2023-02-02T15:08:22;98313.44;;;2.87;54.31
70217;BME280;65567;55.684;37.570;2023-02-02T15:13:20;98307.88;;;3.00;54.26
70217;BME280;65567;55.684;37.570;2023-02-02T15:15:51;98306.28;;;2.95;54.39
70217;BME280;65567;55.684;37.570;2023-02-02T15:18:39;98311.03;;;3.08;54.15
70217;BME280;65567;55.684;37.570;2023-02-02T15:21:09;98301.31;;;2.89;54.63
70217;BME280;65567;55.684;37.570;2023-02-02T15:23:42;98306.56;;;2.88;54.71
70217;BME280;65567;55.684;37.570;2023-02-02T15:26:33;98306.38;;;2.92;54.60
70217;BME280;65567;55.684;37.570;2023-02-02T15:29:04;98306.50;;;2.89;54.89
70217;BME280;65567;55.684;37.570;2023-02-02T15:31:50;98305.75;;;2.86;54.96
70217;BME280;65567;55.684;37.570;2023-02-02T15:37:10;98330.41;;;2.96;54.64
70217;BME280;65567;55.684;37.570;2023-02-02T15:39:41;98322.00;;;2.89;54.83